Du har inga inställningar för hoppväder.nu

Hoppväder.nu

Senast uppdaterat 00:38

UTC-tid

2019-10-20 kl. 22:38


Sol och måne

Solen går upp 8:08 och går ner 18:38 (beräknade cirkatider)
Nästa fullmåne blir om 22 dagar (2019-11-12)

METAR

ESGG (Landvetter)
(18 minuter sedan)
ESGG 202220Z 22005KT 0150 R03/0350N R21/0300N FG VV002 09/08 Q1015=



ESGP (Säve)
ESGP NIL=



ESIB (Såtenäs)
(18 minuter sedan)
ESIB 202220Z AUTO VRB02KT 9999 FEW008/// BKN013/// OVC016/// 09/09 Q1014=



ESGT (Trollhättan/Vänersborg)
(18 minuter sedan)
ESGT 202220Z AUTO 28007KT 9999 OVC004/// 08/07 Q1015=






TAF

ESGG (Landvetter)
(308 minuter sedan)
ESGG 201730Z 2018/2118 20004KT 9999 SCT010 PROB40 2018/2021 4000 -SHRA BR BKN008 SCT020CB BECMG 2021/2023 0500 FG VV002 PROB40 2023/2106 5000 NSW SCT005 BECMG 2106/2108 9999 NSW BKN015 TEMPO 2108/2112 BKN008=



ESGP (Säve)
ESGP



ESIB (Såtenäs)
ESIB



ESGT (Trollhättan/Vänersborg)
(308 minuter sedan)
ESGT 201730Z 2018/2020 22002KT 9999 FEW015 PROB40 2018/2020 4000 -SHRA BR BKN012CB=





Kodnycklar till TAF och METAR






LHP

(Vårgårda är område I4c i Norra delen)

Prognos är inte uppdaterad




Spotting

Hur fungerar spotthjälpen och Vindkartan?

Markvind är ca 0 m/s.



Vindkartan

Senast uppdaterad 00:38




All data kommer från LFV.se